sensor_id;sensor_type;location;lat;lon;timestamp;temperature;humidity
28297;DHT22;62078;49.366;8.172;2022-12-15T00:01:06;16.70;48.70
28297;DHT22;62078;49.366;8.172;2022-12-15T00:03:50;16.70;48.80
28297;DHT22;62078;49.366;8.172;2022-12-15T00:06:34;16.70;48.80
28297;DHT22;62078;49.366;8.172;2022-12-15T00:09:18;16.70;48.70
28297;DHT22;62078;49.366;8.172;2022-12-15T00:12:02;16.70;48.70
28297;DHT22;62078;49.366;8.172;2022-12-15T00:14:47;16.60;48.70
28297;DHT22;62078;49.366;8.172;2022-12-15T00:17:31;16.60;48.70
28297;DHT22;62078;49.366;8.172;2022-12-15T00:20:15;16.70;48.70
28297;DHT22;62078;49.366;8.172;2022-12-15T00:23:07;16.70;48.80
28297;DHT22;62078;49.366;8.172;2022-12-15T00:25:51;16.60;48.60
28297;DHT22;62078;49.366;8.172;2022-12-15T00:28:35;16.60;48.70
28297;DHT22;62078;49.366;8.172;2022-12-15T00:31:19;16.60;48.70
28297;DHT22;62078;49.366;8.172;2022-12-15T00:34:03;16.60;48.80
28297;DHT22;62078;49.366;8.172;2022-12-15T00:36:48;16.60;48.70
28297;DHT22;62078;49.366;8.172;2022-12-15T00:39:31;16.70;48.70
28297;DHT22;62078;49.366;8.172;2022-12-15T00:41:57;16.60;48.70
28297;DHT22;62078;49.366;8.172;2022-12-15T00:44:23;16.70;48.70
28297;DHT22;62078;49.366;8.172;2022-12-15T00:46:49;16.70;48.70
28297;DHT22;62078;49.366;8.172;2022-12-15T00:49:26;16.60;48.70
28297;DHT22;62078;49.366;8.172;2022-12-15T00:52:11;16.60;48.60
28297;DHT22;62078;49.366;8.172;2022-12-15T00:54:56;16.60;48.80
28297;DHT22;62078;49.366;8.172;2022-12-15T00:57:40;16.60;48.70
28297;DHT22;62078;49.366;8.172;2022-12-15T01:00:25;16.60;48.70
28297;DHT22;62078;49.366;8.172;2022-12-15T01:03:11;16.60;48.60
28297;DHT22;62078;49.366;8.172;2022-12-15T01:05:55;16.60;48.60
28297;DHT22;62078;49.366;8.172;2022-12-15T01:08:39;16.60;48.70
28297;DHT22;62078;49.366;8.172;2022-12-15T01:11:24;16.60;48.60
28297;DHT22;62078;49.366;8.172;2022-12-15T01:14:08;16.60;48.60
28297;DHT22;62078;49.366;8.172;2022-12-15T01:16:52;16.60;48.60
28297;DHT22;62078;49.366;8.172;2022-12-15T01:19:36;16.70;48.70
28297;DHT22;62078;49.366;8.172;2022-12-15T01:22:21;16.60;48.60
28297;DHT22;62078;49.366;8.172;2022-12-15T01:24:47;16.60;48.70
28297;DHT22;62078;49.366;8.172;2022-12-15T01:27:12;16.70;48.70
28297;DHT22;62078;49.366;8.172;2022-12-15T01:29:38;16.60;48.60
28297;DHT22;62078;49.366;8.172;2022-12-15T01:32:04;16.60;48.60
28297;DHT22;62078;49.366;8.172;2022-12-15T01:34:29;16.60;48.60
28297;DHT22;62078;49.366;8.172;2022-12-15T01:36:55;16.60;48.60
28297;DHT22;62078;49.366;8.172;2022-12-15T01:39:21;16.60;48.60
28297;DHT22;62078;49.366;8.172;2022-12-15T01:41:46;16.60;48.60
28297;DHT22;62078;49.366;8.172;2022-12-15T01:44:23;16.60;48.60
28297;DHT22;62078;49.366;8.172;2022-12-15T01:46:53;16.60;48.60
28297;DHT22;62078;49.366;8.172;2022-12-15T01:49:25;16.60;48.80
28297;DHT22;62078;49.366;8.172;2022-12-15T01:51:56;16.60;48.60
28297;DHT22;62078;49.366;8.172;2022-12-15T01:54:29;16.60;48.70
28297;DHT22;62078;49.366;8.172;2022-12-15T01:57:01;16.60;48.70
28297;DHT22;62078;49.366;8.172;2022-12-15T01:59:51;16.60;48.60
28297;DHT22;62078;49.366;8.172;2022-12-15T02:02:18;16.60;48.60
28297;DHT22;62078;49.366;8.172;2022-12-15T02:04:47;16.60;48.80
28297;DHT22;62078;49.366;8.172;2022-12-15T02:07:16;16.60;48.60
28297;DHT22;62078;49.366;8.172;2022-12-15T02:09:45;16.60;48.60
28297;DHT22;62078;49.366;8.172;2022-12-15T02:12:31;16.60;48.60
28297;DHT22;62078;49.366;8.172;2022-12-15T02:15:26;16.60;48.60
28297;DHT22;62078;49.366;8.172;2022-12-15T02:18:22;16.60;48.60
28297;DHT22;62078;49.366;8.172;2022-12-15T02:29:21;16.60;48.60
28297;DHT22;62078;49.366;8.172;2022-12-15T02:31:59;16.60;48.60
28297;DHT22;62078;49.366;8.172;2022-12-15T02:34:56;16.60;48.60
28297;DHT22;62078;49.366;8.172;2022-12-15T02:37:33;16.60;48.60
28297;DHT22;62078;49.366;8.172;2022-12-15T02:40:00;16.60;48.60
28297;DHT22;62078;49.366;8.172;2022-12-15T02:42:27;16.60;48.60
28297;DHT22;62078;49.366;8.172;2022-12-15T02:45:04;16.60;48.60
28297;DHT22;62078;49.366;8.172;2022-12-15T02:58:45;16.60;48.60
28297;DHT22;62078;49.366;8.172;2022-12-15T03:01:39;16.60;48.60
28297;DHT22;62078;49.366;8.172;2022-12-15T03:04:08;16.60;48.60
28297;DHT22;62078;49.366;8.172;2022-12-15T03:06:35;16.60;48.60
28297;DHT22;62078;49.366;8.172;2022-12-15T03:09:01;16.60;48.60
28297;DHT22;62078;49.366;8.172;2022-12-15T03:11:27;16.60;48.60
28297;DHT22;62078;49.366;8.172;2022-12-15T03:13:53;16.60;48.60
28297;DHT22;62078;49.366;8.172;2022-12-15T03:16:18;16.60;48.70
28297;DHT22;62078;49.366;8.172;2022-12-15T03:18:44;16.60;48.70
28297;DHT22;62078;49.366;8.172;2022-12-15T03:21:10;16.60;48.90
28297;DHT22;62078;49.366;8.172;2022-12-15T03:23:36;16.60;48.80
28297;DHT22;62078;49.366;8.172;2022-12-15T03:26:02;16.60;48.70
28297;DHT22;62078;49.366;8.172;2022-12-15T03:28:27;16.60;48.80
28297;DHT22;62078;49.366;8.172;2022-12-15T03:30:53;16.60;48.70
28297;DHT22;62078;49.366;8.172;2022-12-15T03:33:18;16.60;48.70
28297;DHT22;62078;49.366;8.172;2022-12-15T03:35:44;16.60;48.90
28297;DHT22;62078;49.366;8.172;2022-12-15T03:38:10;16.60;48.80
28297;DHT22;62078;49.366;8.172;2022-12-15T03:40:35;16.60;48.80
28297;DHT22;62078;49.366;8.172;2022-12-15T03:43:01;16.60;48.80
28297;DHT22;62078;49.366;8.172;2022-12-15T03:45:27;16.60;48.90
28297;DHT22;62078;49.366;8.172;2022-12-15T03:47:55;16.60;48.90
28297;DHT22;62078;49.366;8.172;2022-12-15T03:50:23;16.60;48.80
28297;DHT22;62078;49.366;8.172;2022-12-15T03:52:50;16.60;49.10
28297;DHT22;62078;49.366;8.172;2022-12-15T03:55:16;16.60;48.90
28297;DHT22;62078;49.366;8.172;2022-12-15T03:57:43;16.60;48.90
28297;DHT22;62078;49.366;8.172;2022-12-15T04:00:11;16.60;48.90
28297;DHT22;62078;49.366;8.172;2022-12-15T04:02:40;16.60;48.90
28297;DHT22;62078;49.366;8.172;2022-12-15T04:05:06;16.60;48.90
28297;DHT22;62078;49.366;8.172;2022-12-15T04:07:32;16.60;49.10
28297;DHT22;62078;49.366;8.172;2022-12-15T04:09:58;16.60;49.10
28297;DHT22;62078;49.366;8.172;2022-12-15T04:12:23;16.60;49.50
28297;DHT22;62078;49.366;8.172;2022-12-15T04:14:49;16.60;49.30
28297;DHT22;62078;49.366;8.172;2022-12-15T04:17:15;16.60;49.30
28297;DHT22;62078;49.366;8.172;2022-12-15T04:19:40;16.60;49.20
28297;DHT22;62078;49.366;8.172;2022-12-15T04:22:42;16.70;49.40
28297;DHT22;62078;49.366;8.172;2022-12-15T04:25:17;16.60;49.40
28297;DHT22;62078;49.366;8.172;2022-12-15T04:28:02;16.60;49.40
28297;DHT22;62078;49.366;8.172;2022-12-15T04:30:51;16.60;49.40
28297;DHT22;62078;49.366;8.172;2022-12-15T04:33:39;16.70;49.40
28297;DHT22;62078;49.366;8.172;2022-12-15T04:36:26;16.70;49.50
28297;DHT22;62078;49.366;8.172;2022-12-15T04:39:10;16.70;49.70
28297;DHT22;62078;49.366;8.172;2022-12-15T04:41:57;16.70;49.70
28297;DHT22;62078;49.366;8.172;2022-12-15T04:44:42;16.60;49.80
28297;DHT22;62078;49.366;8.172;2022-12-15T18:25:45;16.70;49.70
28297;DHT22;62078;49.366;8.172;2022-12-15T18:28:23;17.80;48.20
28297;DHT22;62078;49.366;8.172;2022-12-15T18:30:52;17.80;48.20
28297;DHT22;62078;49.366;8.172;2022-12-15T18:33:19;17.80;48.20
28297;DHT22;62078;49.366;8.172;2022-12-15T18:35:49;17.80;48.00
28297;DHT22;62078;49.366;8.172;2022-12-15T18:38:20;17.80;48.00
28297;DHT22;62078;49.366;8.172;2022-12-15T18:40:49;17.80;48.00
28297;DHT22;62078;49.366;8.172;2022-12-15T18:43:16;17.80;48.00
28297;DHT22;62078;49.366;8.172;2022-12-15T18:45:43;17.80;48.00
28297;DHT22;62078;49.366;8.172;2022-12-15T18:50:48;17.80;48.00
28297;DHT22;62078;49.366;8.172;2022-12-15T18:55:51;17.80;47.90
28297;DHT22;62078;49.366;8.172;2022-12-15T18:58:28;17.80;47.80
28297;DHT22;62078;49.366;8.172;2022-12-15T19:00:56;17.80;47.80
28297;DHT22;62078;49.366;8.172;2022-12-15T19:03:26;17.80;47.80
28297;DHT22;62078;49.366;8.172;2022-12-15T19:09:16;17.70;47.70
28297;DHT22;62078;49.366;8.172;2022-12-15T19:11:44;17.80;47.80
28297;DHT22;62078;49.366;8.172;2022-12-15T19:14:30;17.80;47.80
28297;DHT22;62078;49.366;8.172;2022-12-15T19:17:09;17.70;47.60
28297;DHT22;62078;49.366;8.172;2022-12-15T19:19:53;17.80;47.70
28297;DHT22;62078;49.366;8.172;2022-12-15T19:22:38;17.80;47.70
28297;DHT22;62078;49.366;8.172;2022-12-15T19:25:04;17.70;47.90
28297;DHT22;62078;49.366;8.172;2022-12-15T19:27:30;17.70;47.70
28297;DHT22;62078;49.366;8.172;2022-12-15T19:29:56;17.70;47.50
28297;DHT22;62078;49.366;8.172;2022-12-15T19:32:22;17.70;47.60
28297;DHT22;62078;49.366;8.172;2022-12-15T19:34:51;17.70;47.80
28297;DHT22;62078;49.366;8.172;2022-12-15T19:37:27;17.70;47.80
28297;DHT22;62078;49.366;8.172;2022-12-15T19:39:55;17.70;47.80
28297;DHT22;62078;49.366;8.172;2022-12-15T19:42:31;17.70;47.80
28297;DHT22;62078;49.366;8.172;2022-12-15T19:44:58;17.70;47.80
28297;DHT22;62078;49.366;8.172;2022-12-15T19:47:26;17.70;47.70
28297;DHT22;62078;49.366;8.172;2022-12-15T19:49:52;17.70;47.80
28297;DHT22;62078;49.366;8.172;2022-12-15T19:52:18;17.70;47.80
28297;DHT22;62078;49.366;8.172;2022-12-15T19:54:47;17.70;47.70
28297;DHT22;62078;49.366;8.172;2022-12-15T19:57:15;17.70;47.60
28297;DHT22;62078;49.366;8.172;2022-12-15T19:59:42;17.70;47.60
28297;DHT22;62078;49.366;8.172;2022-12-15T20:02:15;17.70;47.70
28297;DHT22;62078;49.366;8.172;2022-12-15T20:08:04;17.70;47.60
28297;DHT22;62078;49.366;8.172;2022-12-15T20:10:30;17.70;47.50
28297;DHT22;62078;49.366;8.172;2022-12-15T20:12:56;17.70;47.40
28297;DHT22;62078;49.366;8.172;2022-12-15T20:15:23;17.70;47.80
28297;DHT22;62078;49.366;8.172;2022-12-15T20:17:49;17.70;48.00
28297;DHT22;62078;49.366;8.172;2022-12-15T20:20:21;17.70;47.80
28297;DHT22;62078;49.366;8.172;2022-12-15T20:22:50;17.70;47.70
28297;DHT22;62078;49.366;8.172;2022-12-15T20:25:22;17.70;47.70
28297;DHT22;62078;49.366;8.172;2022-12-15T20:27:49;17.70;47.60
28297;DHT22;62078;49.366;8.172;2022-12-15T20:30:17;17.70;47.60
28297;DHT22;62078;49.366;8.172;2022-12-15T20:32:43;17.70;47.60
28297;DHT22;62078;49.366;8.172;2022-12-15T20:35:13;17.70;47.50
28297;DHT22;62078;49.366;8.172;2022-12-15T20:37:39;17.70;47.60
28297;DHT22;62078;49.366;8.172;2022-12-15T20:40:26;17.70;47.80
28297;DHT22;62078;49.366;8.172;2022-12-15T20:42:53;17.70;47.70
28297;DHT22;62078;49.366;8.172;2022-12-15T20:45:23;17.70;47.50
28297;DHT22;62078;49.366;8.172;2022-12-15T20:47:50;17.70;47.70
28297;DHT22;62078;49.366;8.172;2022-12-15T20:50:32;17.70;47.50
28297;DHT22;62078;49.366;8.172;2022-12-15T20:52:59;17.70;47.90
28297;DHT22;62078;49.366;8.172;2022-12-15T20:55:25;17.70;47.90
28297;DHT22;62078;49.366;8.172;2022-12-15T20:57:51;17.70;47.80
28297;DHT22;62078;49.366;8.172;2022-12-15T21:00:21;17.70;47.80
28297;DHT22;62078;49.366;8.172;2022-12-15T21:02:47;17.60;47.70
28297;DHT22;62078;49.366;8.172;2022-12-15T21:05:18;17.60;47.60
28297;DHT22;62078;49.366;8.172;2022-12-15T21:07:45;17.70;47.70
28297;DHT22;62078;49.366;8.172;2022-12-15T21:10:12;17.60;47.60
28297;DHT22;62078;49.366;8.172;2022-12-15T21:12:39;17.60;47.80
28297;DHT22;62078;49.366;8.172;2022-12-15T21:15:24;17.60;48.00
28297;DHT22;62078;49.366;8.172;2022-12-15T21:17:51;17.60;47.80
28297;DHT22;62078;49.366;8.172;2022-12-15T21:20:18;17.60;47.80
28297;DHT22;62078;49.366;8.172;2022-12-15T21:22:43;17.60;47.80
28297;DHT22;62078;49.366;8.172;2022-12-15T21:25:21;17.60;48.40
28297;DHT22;62078;49.366;8.172;2022-12-15T21:27:47;17.60;48.00
28297;DHT22;62078;49.366;8.172;2022-12-15T21:30:19;17.60;48.00
28297;DHT22;62078;49.366;8.172;2022-12-15T21:32:49;17.60;47.90
28297;DHT22;62078;49.366;8.172;2022-12-15T21:35:16;17.60;47.90
28297;DHT22;62078;49.366;8.172;2022-12-15T21:37:46;17.60;47.90
28297;DHT22;62078;49.366;8.172;2022-12-15T21:40:24;17.60;48.20
28297;DHT22;62078;49.366;8.172;2022-12-15T21:42:51;17.60;48.00
28297;DHT22;62078;49.366;8.172;2022-12-15T21:45:22;17.60;48.10
28297;DHT22;62078;49.366;8.172;2022-12-15T21:47:49;17.50;47.90
28297;DHT22;62078;49.366;8.172;2022-12-15T21:50:34;17.60;48.00
28297;DHT22;62078;49.366;8.172;2022-12-15T21:53:01;17.60;47.90
28297;DHT22;62078;49.366;8.172;2022-12-15T21:55:28;17.50;48.10
28297;DHT22;62078;49.366;8.172;2022-12-15T21:57:54;17.50;48.10
28297;DHT22;62078;49.366;8.172;2022-12-15T22:00:22;17.60;48.20
28297;DHT22;62078;49.366;8.172;2022-12-15T22:02:49;17.60;47.90
28297;DHT22;62078;49.366;8.172;2022-12-15T22:05:17;17.50;47.80
28297;DHT22;62078;49.366;8.172;2022-12-15T22:07:43;17.60;48.10
28297;DHT22;62078;49.366;8.172;2022-12-15T22:10:09;17.50;48.00
28297;DHT22;62078;49.366;8.172;2022-12-15T22:12:36;17.60;48.00
28297;DHT22;62078;49.366;8.172;2022-12-15T22:15:03;17.60;48.00
28297;DHT22;62078;49.366;8.172;2022-12-15T22:17:34;17.50;48.10
28297;DHT22;62078;49.366;8.172;2022-12-15T22:19:59;17.50;48.20
28297;DHT22;62078;49.366;8.172;2022-12-15T22:22:25;17.50;48.20
28297;DHT22;62078;49.366;8.172;2022-12-15T22:24:51;17.60;48.20
28297;DHT22;62078;49.366;8.172;2022-12-15T22:27:20;17.60;48.10
28297;DHT22;62078;49.366;8.172;2022-12-15T22:29:48;17.50;48.20
28297;DHT22;62078;49.366;8.172;2022-12-15T22:32:14;17.50;48.00
28297;DHT22;62078;49.366;8.172;2022-12-15T22:34:41;17.50;48.10
28297;DHT22;62078;49.366;8.172;2022-12-15T22:37:06;17.50;48.40
28297;DHT22;62078;49.366;8.172;2022-12-15T22:39:32;17.50;48.20
28297;DHT22;62078;49.366;8.172;2022-12-15T22:41:59;17.50;48.50
28297;DHT22;62078;49.366;8.172;2022-12-15T22:44:28;17.50;48.10
28297;DHT22;62078;49.366;8.172;2022-12-15T22:46:57;17.50;47.90
28297;DHT22;62078;49.366;8.172;2022-12-15T22:49:29;17.50;48.10
28297;DHT22;62078;49.366;8.172;2022-12-15T22:51:55;17.50;47.80
28297;DHT22;62078;49.366;8.172;2022-12-15T22:54:23;17.50;48.00
28297;DHT22;62078;49.366;8.172;2022-12-15T22:57:11;17.50;48.20
28297;DHT22;62078;49.366;8.172;2022-12-15T22:59:47;17.50;48.20
28297;DHT22;62078;49.366;8.172;2022-12-15T23:02:13;17.50;48.20
28297;DHT22;62078;49.366;8.172;2022-12-15T23:04:39;17.50;48.30
28297;DHT22;62078;49.366;8.172;2022-12-15T23:07:07;17.50;48.00
28297;DHT22;62078;49.366;8.172;2022-12-15T23:09:36;17.50;48.00
28297;DHT22;62078;49.366;8.172;2022-12-15T23:12:02;17.50;48.20
28297;DHT22;62078;49.366;8.172;2022-12-15T23:14:28;17.50;47.90
28297;DHT22;62078;49.366;8.172;2022-12-15T23:17:12;17.50;48.10
28297;DHT22;62078;49.366;8.172;2022-12-15T23:19:45;17.50;48.10
28297;DHT22;62078;49.366;8.172;2022-12-15T23:22:11;17.40;48.10
28297;DHT22;62078;49.366;8.172;2022-12-15T23:24:37;17.40;47.90
28297;DHT22;62078;49.366;8.172;2022-12-15T23:27:03;17.40;47.80
28297;DHT22;62078;49.366;8.172;2022-12-15T23:29:29;17.40;47.90
28297;DHT22;62078;49.366;8.172;2022-12-15T23:31:55;17.40;48.00
28297;DHT22;62078;49.366;8.172;2022-12-15T23:34:21;17.40;47.90
28297;DHT22;62078;49.366;8.172;2022-12-15T23:36:47;17.40;47.80
28297;DHT22;62078;49.366;8.172;2022-12-15T23:39:12;17.40;47.90
28297;DHT22;62078;49.366;8.172;2022-12-15T23:41:38;17.40;48.00
28297;DHT22;62078;49.366;8.172;2022-12-15T23:44:04;17.40;48.00
28297;DHT22;62078;49.366;8.172;2022-12-15T23:46:30;17.40;47.90
28297;DHT22;62078;49.366;8.172;2022-12-15T23:48:56;17.40;47.90
28297;DHT22;62078;49.366;8.172;2022-12-15T23:51:22;17.40;47.90
28297;DHT22;62078;49.366;8.172;2022-12-15T23:53:48;17.40;47.80
28297;DHT22;62078;49.366;8.172;2022-12-15T23:56:19;17.40;47.80
28297;DHT22;62078;49.366;8.172;2022-12-15T23:58:46;17.40;47.80
